首页
METAR-TAF:

METAR-TAF

机场 :

Mitiga International Airport

的黎波里, 利比亚

纬度: 32-54N, 经度: 13-17E, 海拔: 11米

当前天气观测

该预报发布于38分钟前的11:50 UTC
风速12节,风向东转东北
温度 31°C
湿度 59%
气压 1013 hPa
能見度: 7000

METAR: HLLM 161150Z 07012KT 7000 NSC 31/22 Q1013

时间: 14:28 (12:28 UTC)

预报

该预报发布于7小时和28分钟前的05:00 UTC
预报有效从16日的 06点(UTC)到 17日的 06点(UTC)
风速10节,风向
能见度10公里或以上
少量云层高于2500英尺
成为
从 16日的 10点(UTC)到 16日的 12点(UTC)
风速15节,风向北转东北
成为
从 17日的 00点(UTC)到 17日的 02点(UTC)
风速10节,风向

TAF: HLLM 160500Z 1606/1706 09010KT 9999 FEW025 BECMG 1610/1612 03015KT BECMG 1700/1702 10010KT

超过4000个机场的气象观测和天气预报(METAR&TAF报告)。

可查询的气象台以黄色和红色小点在地图上表示。

将鼠标移到小点上方,可查看气象台名称。

然后点击查看天气观测和预报。

如需切换地图:点击带黑十字的绿色按钮放大地图;点击带横线的绿色按钮缩小地图;或者点击绿色箭头查看邻近地区的地图。


METAR-TAF: